sensor_id;sensor_type;location;lat;lon;timestamp;P1;durP1;ratioP1;P2;durP2;ratioP2
36855;SDS011;22788;51.434;6.786;2023-04-03T00:00:02;5.10;;;3.70;;
36855;SDS011;22788;51.434;6.786;2023-04-03T00:02:29;5.90;;;3.37;;
36855;SDS011;22788;51.434;6.786;2023-04-03T00:04:55;5.60;;;3.90;;
36855;SDS011;22788;51.434;6.786;2023-04-03T00:07:20;5.50;;;4.07;;
36855;SDS011;22788;51.434;6.786;2023-04-03T00:09:46;4.30;;;3.37;;
36855;SDS011;22788;51.434;6.786;2023-04-03T00:12:12;6.27;;;3.70;;
36855;SDS011;22788;51.434;6.786;2023-04-03T00:14:37;5.03;;;4.07;;
36855;SDS011;22788;51.434;6.786;2023-04-03T00:17:04;4.80;;;3.57;;
36855;SDS011;22788;51.434;6.786;2023-04-03T00:19:30;5.37;;;3.80;;
36855;SDS011;22788;51.434;6.786;2023-04-03T00:21:55;4.97;;;3.70;;
36855;SDS011;22788;51.434;6.786;2023-04-03T00:24:21;6.70;;;3.73;;
36855;SDS011;22788;51.434;6.786;2023-04-03T00:26:47;7.37;;;3.63;;
36855;SDS011;22788;51.434;6.786;2023-04-03T00:29:12;5.57;;;3.87;;
36855;SDS011;22788;51.434;6.786;2023-04-03T00:31:38;4.63;;;3.70;;
36855;SDS011;22788;51.434;6.786;2023-04-03T00:34:05;7.10;;;3.90;;
36855;SDS011;22788;51.434;6.786;2023-04-03T00:36:30;4.43;;;3.73;;
36855;SDS011;22788;51.434;6.786;2023-04-03T00:38:56;6.17;;;3.93;;
36855;SDS011;22788;51.434;6.786;2023-04-03T00:41:22;4.17;;;3.60;;
36855;SDS011;22788;51.434;6.786;2023-04-03T00:43:47;5.77;;;4.07;;
36855;SDS011;22788;51.434;6.786;2023-04-03T00:46:13;5.27;;;3.70;;
36855;SDS011;22788;51.434;6.786;2023-04-03T00:48:39;4.17;;;3.60;;
36855;SDS011;22788;51.434;6.786;2023-04-03T00:51:09;6.33;;;3.97;;
36855;SDS011;22788;51.434;6.786;2023-04-03T00:53:39;4.47;;;3.77;;
36855;SDS011;22788;51.434;6.786;2023-04-03T00:56:08;4.33;;;3.60;;
36855;SDS011;22788;51.434;6.786;2023-04-03T00:58:37;4.97;;;3.50;;
36855;SDS011;22788;51.434;6.786;2023-04-03T01:01:06;7.10;;;3.57;;
36855;SDS011;22788;51.434;6.786;2023-04-03T01:03:35;5.07;;;3.90;;
36855;SDS011;22788;51.434;6.786;2023-04-03T01:06:01;5.90;;;3.57;;
36855;SDS011;22788;51.434;6.786;2023-04-03T01:08:29;4.73;;;3.87;;
36855;SDS011;22788;51.434;6.786;2023-04-03T01:10:55;4.83;;;3.70;;
36855;SDS011;22788;51.434;6.786;2023-04-03T01:13:23;5.10;;;3.83;;
36855;SDS011;22788;51.434;6.786;2023-04-03T01:15:51;9.33;;;4.20;;
36855;SDS011;22788;51.434;6.786;2023-04-03T01:18:17;6.13;;;3.70;;
36855;SDS011;22788;51.434;6.786;2023-04-03T01:23:53;5.83;;;3.87;;
36855;SDS011;22788;51.434;6.786;2023-04-03T01:26:24;6.37;;;3.93;;
36855;SDS011;22788;51.434;6.786;2023-04-03T01:28:50;5.17;;;4.27;;
36855;SDS011;22788;51.434;6.786;2023-04-03T01:31:18;7.60;;;3.93;;
36855;SDS011;22788;51.434;6.786;2023-04-03T01:33:48;5.93;;;4.07;;
36855;SDS011;22788;51.434;6.786;2023-04-03T01:36:15;5.23;;;4.03;;
36855;SDS011;22788;51.434;6.786;2023-04-03T01:38:43;6.70;;;4.23;;
36855;SDS011;22788;51.434;6.786;2023-04-03T01:41:08;5.57;;;4.33;;
36855;SDS011;22788;51.434;6.786;2023-04-03T01:43:34;8.13;;;4.93;;
36855;SDS011;22788;51.434;6.786;2023-04-03T01:46:00;5.50;;;4.20;;
36855;SDS011;22788;51.434;6.786;2023-04-03T01:48:25;6.37;;;4.40;;
36855;SDS011;22788;51.434;6.786;2023-04-03T01:50:53;5.63;;;4.17;;
36855;SDS011;22788;51.434;6.786;2023-04-03T01:53:18;6.17;;;4.27;;
36855;SDS011;22788;51.434;6.786;2023-04-03T01:55:44;6.43;;;4.50;;
36855;SDS011;22788;51.434;6.786;2023-04-03T01:58:09;5.80;;;4.47;;
36855;SDS011;22788;51.434;6.786;2023-04-03T02:00:35;6.83;;;4.40;;
36855;SDS011;22788;51.434;6.786;2023-04-03T02:03:01;6.30;;;4.57;;
36855;SDS011;22788;51.434;6.786;2023-04-03T02:05:27;8.27;;;5.10;;
36855;SDS011;22788;51.434;6.786;2023-04-03T02:07:54;5.43;;;4.20;;
36855;SDS011;22788;51.434;6.786;2023-04-03T02:10:20;6.53;;;4.40;;
36855;SDS011;22788;51.434;6.786;2023-04-03T02:12:45;5.83;;;4.23;;
36855;SDS011;22788;51.434;6.786;2023-04-03T02:15:11;6.47;;;5.07;;
36855;SDS011;22788;51.434;6.786;2023-04-03T02:17:36;6.67;;;4.63;;
36855;SDS011;22788;51.434;6.786;2023-04-03T02:20:02;6.20;;;3.87;;
36855;SDS011;22788;51.434;6.786;2023-04-03T02:22:28;4.17;;;3.77;;
36855;SDS011;22788;51.434;6.786;2023-04-03T02:24:55;7.30;;;4.60;;
36855;SDS011;22788;51.434;6.786;2023-04-03T02:27:21;7.77;;;4.47;;
36855;SDS011;22788;51.434;6.786;2023-04-03T02:29:46;7.90;;;4.47;;
36855;SDS011;22788;51.434;6.786;2023-04-03T02:32:12;8.83;;;4.13;;
36855;SDS011;22788;51.434;6.786;2023-04-03T02:34:37;6.93;;;3.80;;
36855;SDS011;22788;51.434;6.786;2023-04-03T02:37:03;7.03;;;4.50;;
36855;SDS011;22788;51.434;6.786;2023-04-03T02:39:29;7.13;;;3.63;;
36855;SDS011;22788;51.434;6.786;2023-04-03T02:41:56;4.93;;;3.70;;
36855;SDS011;22788;51.434;6.786;2023-04-03T02:44:21;6.07;;;3.87;;
36855;SDS011;22788;51.434;6.786;2023-04-03T02:46:47;6.87;;;4.17;;
36855;SDS011;22788;51.434;6.786;2023-04-03T02:49:12;4.23;;;3.80;;
36855;SDS011;22788;51.434;6.786;2023-04-03T02:51:38;6.77;;;4.10;;
36855;SDS011;22788;51.434;6.786;2023-04-03T02:54:04;6.77;;;3.97;;
36855;SDS011;22788;51.434;6.786;2023-04-03T02:56:29;5.87;;;3.53;;
36855;SDS011;22788;51.434;6.786;2023-04-03T02:58:56;4.83;;;3.73;;
36855;SDS011;22788;51.434;6.786;2023-04-03T03:01:22;5.23;;;3.60;;
36855;SDS011;22788;51.434;6.786;2023-04-03T03:03:48;5.47;;;3.93;;
36855;SDS011;22788;51.434;6.786;2023-04-03T03:06:14;8.37;;;3.90;;
36855;SDS011;22788;51.434;6.786;2023-04-03T03:08:41;5.40;;;3.50;;
36855;SDS011;22788;51.434;6.786;2023-04-03T03:11:07;5.73;;;3.77;;
36855;SDS011;22788;51.434;6.786;2023-04-03T03:13:33;4.73;;;3.63;;
36855;SDS011;22788;51.434;6.786;2023-04-03T03:16:01;3.77;;;3.30;;
36855;SDS011;22788;51.434;6.786;2023-04-03T03:18:27;7.20;;;3.87;;
36855;SDS011;22788;51.434;6.786;2023-04-03T03:20:54;4.10;;;3.07;;
36855;SDS011;22788;51.434;6.786;2023-04-03T03:23:21;5.47;;;3.40;;
36855;SDS011;22788;51.434;6.786;2023-04-03T03:25:47;4.30;;;3.30;;
36855;SDS011;22788;51.434;6.786;2023-04-03T03:28:13;8.43;;;3.70;;
36855;SDS011;22788;51.434;6.786;2023-04-03T03:30:39;5.20;;;3.73;;
36855;SDS011;22788;51.434;6.786;2023-04-03T03:33:06;4.70;;;3.07;;
36855;SDS011;22788;51.434;6.786;2023-04-03T03:35:32;4.70;;;2.90;;
36855;SDS011;22788;51.434;6.786;2023-04-03T03:37:57;4.60;;;3.20;;
36855;SDS011;22788;51.434;6.786;2023-04-03T03:40:23;3.83;;;2.87;;
36855;SDS011;22788;51.434;6.786;2023-04-03T03:42:48;7.20;;;3.30;;
36855;SDS011;22788;51.434;6.786;2023-04-03T03:45:14;4.33;;;2.70;;
36855;SDS011;22788;51.434;6.786;2023-04-03T03:47:40;6.13;;;2.90;;
36855;SDS011;22788;51.434;6.786;2023-04-03T03:50:08;4.47;;;2.73;;
36855;SDS011;22788;51.434;6.786;2023-04-03T03:52:34;4.73;;;3.33;;
36855;SDS011;22788;51.434;6.786;2023-04-03T03:54:59;5.70;;;2.67;;
36855;SDS011;22788;51.434;6.786;2023-04-03T03:57:25;4.80;;;2.63;;
36855;SDS011;22788;51.434;6.786;2023-04-03T03:59:51;3.73;;;2.87;;
36855;SDS011;22788;51.434;6.786;2023-04-03T04:02:16;3.83;;;2.67;;
36855;SDS011;22788;51.434;6.786;2023-04-03T04:04:42;3.07;;;2.47;;
36855;SDS011;22788;51.434;6.786;2023-04-03T04:07:09;4.30;;;2.57;;
36855;SDS011;22788;51.434;6.786;2023-04-03T04:09:34;4.77;;;2.37;;
36855;SDS011;22788;51.434;6.786;2023-04-03T04:12:00;6.20;;;2.97;;
36855;SDS011;22788;51.434;6.786;2023-04-03T04:14:25;3.47;;;2.60;;
36855;SDS011;22788;51.434;6.786;2023-04-03T04:16:51;2.73;;;2.23;;
36855;SDS011;22788;51.434;6.786;2023-04-03T04:19:17;6.33;;;2.33;;
36855;SDS011;22788;51.434;6.786;2023-04-03T04:21:42;3.13;;;2.73;;
36855;SDS011;22788;51.434;6.786;2023-04-03T04:24:09;5.40;;;2.77;;
36855;SDS011;22788;51.434;6.786;2023-04-03T04:26:35;3.03;;;2.50;;
36855;SDS011;22788;51.434;6.786;2023-04-03T04:29:01;4.17;;;2.23;;
36855;SDS011;22788;51.434;6.786;2023-04-03T04:31:26;2.50;;;2.30;;
36855;SDS011;22788;51.434;6.786;2023-04-03T04:33:52;5.40;;;2.60;;
36855;SDS011;22788;51.434;6.786;2023-04-03T04:36:18;3.80;;;2.20;;
36855;SDS011;22788;51.434;6.786;2023-04-03T04:38:44;4.73;;;2.30;;
36855;SDS011;22788;51.434;6.786;2023-04-03T04:41:11;3.20;;;2.10;;
36855;SDS011;22788;51.434;6.786;2023-04-03T04:43:37;2.27;;;2.00;;
36855;SDS011;22788;51.434;6.786;2023-04-03T04:46:03;2.53;;;2.13;;
36855;SDS011;22788;51.434;6.786;2023-04-03T04:48:30;3.73;;;2.30;;
36855;SDS011;22788;51.434;6.786;2023-04-03T04:50:56;3.10;;;2.23;;
36855;SDS011;22788;51.434;6.786;2023-04-03T04:53:21;3.80;;;2.27;;
36855;SDS011;22788;51.434;6.786;2023-04-03T04:55:47;4.23;;;2.20;;
36855;SDS011;22788;51.434;6.786;2023-04-03T04:58:14;4.10;;;2.03;;
36855;SDS011;22788;51.434;6.786;2023-04-03T05:00:40;5.90;;;3.00;;
36855;SDS011;22788;51.434;6.786;2023-04-03T05:03:05;3.30;;;1.97;;
36855;SDS011;22788;51.434;6.786;2023-04-03T05:05:31;4.97;;;2.10;;
36855;SDS011;22788;51.434;6.786;2023-04-03T05:07:56;3.20;;;1.97;;
36855;SDS011;22788;51.434;6.786;2023-04-03T05:10:22;2.87;;;2.00;;
36855;SDS011;22788;51.434;6.786;2023-04-03T05:12:48;5.70;;;2.20;;
36855;SDS011;22788;51.434;6.786;2023-04-03T05:15:15;6.30;;;2.10;;
36855;SDS011;22788;51.434;6.786;2023-04-03T05:17:40;3.47;;;1.77;;
36855;SDS011;22788;51.434;6.786;2023-04-03T05:20:06;3.53;;;2.00;;
36855;SDS011;22788;51.434;6.786;2023-04-03T05:22:32;3.10;;;2.00;;
36855;SDS011;22788;51.434;6.786;2023-04-03T05:24:58;3.77;;;1.73;;
36855;SDS011;22788;51.434;6.786;2023-04-03T05:27:24;2.40;;;1.87;;
36855;SDS011;22788;51.434;6.786;2023-04-03T05:29:49;3.73;;;1.90;;
36855;SDS011;22788;51.434;6.786;2023-04-03T05:32:16;3.40;;;2.27;;
36855;SDS011;22788;51.434;6.786;2023-04-03T05:34:42;2.70;;;1.60;;
36855;SDS011;22788;51.434;6.786;2023-04-03T05:37:07;3.93;;;2.27;;
36855;SDS011;22788;51.434;6.786;2023-04-03T05:39:33;6.37;;;2.20;;
36855;SDS011;22788;51.434;6.786;2023-04-03T05:41:59;4.27;;;2.30;;
36855;SDS011;22788;51.434;6.786;2023-04-03T05:44:24;3.90;;;2.00;;
36855;SDS011;22788;51.434;6.786;2023-04-03T05:46:50;4.47;;;2.10;;
36855;SDS011;22788;51.434;6.786;2023-04-03T05:49:17;2.17;;;1.83;;
36855;SDS011;22788;51.434;6.786;2023-04-03T05:51:43;2.87;;;2.00;;
36855;SDS011;22788;51.434;6.786;2023-04-03T05:54:10;5.03;;;2.53;;
36855;SDS011;22788;51.434;6.786;2023-04-03T05:56:40;4.20;;;1.90;;
36855;SDS011;22788;51.434;6.786;2023-04-03T05:59:06;3.30;;;1.93;;
36855;SDS011;22788;51.434;6.786;2023-04-03T06:01:32;4.33;;;2.03;;
36855;SDS011;22788;51.434;6.786;2023-04-03T06:03:58;4.67;;;2.10;;
36855;SDS011;22788;51.434;6.786;2023-04-03T06:06:25;3.30;;;1.90;;
36855;SDS011;22788;51.434;6.786;2023-04-03T06:08:50;2.43;;;1.90;;
36855;SDS011;22788;51.434;6.786;2023-04-03T06:11:16;6.27;;;2.20;;
36855;SDS011;22788;51.434;6.786;2023-04-03T06:13:42;4.27;;;2.30;;
36855;SDS011;22788;51.434;6.786;2023-04-03T06:16:08;3.67;;;2.10;;
36855;SDS011;22788;51.434;6.786;2023-04-03T06:18:34;5.63;;;2.07;;
36855;SDS011;22788;51.434;6.786;2023-04-03T06:21:00;4.73;;;2.37;;
36855;SDS011;22788;51.434;6.786;2023-04-03T06:23:27;6.90;;;3.07;;
36855;SDS011;22788;51.434;6.786;2023-04-03T06:25:52;5.27;;;2.20;;
36855;SDS011;22788;51.434;6.786;2023-04-03T06:28:18;4.33;;;2.50;;
36855;SDS011;22788;51.434;6.786;2023-04-03T06:30:43;6.07;;;2.33;;
36855;SDS011;22788;51.434;6.786;2023-04-03T06:33:09;5.23;;;2.40;;
36855;SDS011;22788;51.434;6.786;2023-04-03T06:35:34;6.90;;;2.40;;
36855;SDS011;22788;51.434;6.786;2023-04-03T06:38:00;3.03;;;2.10;;
36855;SDS011;22788;51.434;6.786;2023-04-03T06:40:27;4.40;;;2.40;;
36855;SDS011;22788;51.434;6.786;2023-04-03T06:42:53;4.13;;;2.27;;
36855;SDS011;22788;51.434;6.786;2023-04-03T06:45:18;3.43;;;2.23;;
36855;SDS011;22788;51.434;6.786;2023-04-03T06:47:44;2.63;;;2.30;;
36855;SDS011;22788;51.434;6.786;2023-04-03T06:50:10;7.23;;;2.17;;
36855;SDS011;22788;51.434;6.786;2023-04-03T06:52:36;3.07;;;2.10;;
36855;SDS011;22788;51.434;6.786;2023-04-03T06:55:02;4.17;;;2.20;;
36855;SDS011;22788;51.434;6.786;2023-04-03T06:57:29;4.50;;;2.50;;
36855;SDS011;22788;51.434;6.786;2023-04-03T06:59:55;5.27;;;2.43;;
36855;SDS011;22788;51.434;6.786;2023-04-03T07:02:20;3.23;;;2.00;;
36855;SDS011;22788;51.434;6.786;2023-04-03T07:04:46;3.87;;;2.20;;
36855;SDS011;22788;51.434;6.786;2023-04-03T07:07:12;3.77;;;2.37;;
36855;SDS011;22788;51.434;6.786;2023-04-03T07:09:38;5.27;;;2.20;;
36855;SDS011;22788;51.434;6.786;2023-04-03T07:12:03;6.57;;;2.33;;
36855;SDS011;22788;51.434;6.786;2023-04-03T07:14:31;4.07;;;2.00;;
36855;SDS011;22788;51.434;6.786;2023-04-03T07:16:56;3.30;;;2.10;;
36855;SDS011;22788;51.434;6.786;2023-04-03T07:19:22;3.07;;;2.20;;
36855;SDS011;22788;51.434;6.786;2023-04-03T07:21:47;4.53;;;2.03;;
36855;SDS011;22788;51.434;6.786;2023-04-03T07:24:13;4.87;;;2.00;;
36855;SDS011;22788;51.434;6.786;2023-04-03T07:26:39;4.93;;;2.13;;
36855;SDS011;22788;51.434;6.786;2023-04-03T07:29:04;5.60;;;2.00;;
36855;SDS011;22788;51.434;6.786;2023-04-03T07:31:31;3.33;;;2.23;;
36855;SDS011;22788;51.434;6.786;2023-04-03T07:33:57;3.97;;;1.90;;
36855;SDS011;22788;51.434;6.786;2023-04-03T07:36:22;3.57;;;2.37;;
36855;SDS011;22788;51.434;6.786;2023-04-03T07:38:48;6.03;;;2.50;;
36855;SDS011;22788;51.434;6.786;2023-04-03T07:41:15;3.17;;;2.33;;
36855;SDS011;22788;51.434;6.786;2023-04-03T07:43:42;3.10;;;1.80;;
36855;SDS011;22788;51.434;6.786;2023-04-03T07:46:07;4.80;;;2.00;;
36855;SDS011;22788;51.434;6.786;2023-04-03T07:48:35;4.87;;;2.40;;
36855;SDS011;22788;51.434;6.786;2023-04-03T07:51:00;3.17;;;2.10;;
36855;SDS011;22788;51.434;6.786;2023-04-03T07:53:27;4.60;;;2.00;;
36855;SDS011;22788;51.434;6.786;2023-04-03T07:55:53;2.27;;;2.00;;
36855;SDS011;22788;51.434;6.786;2023-04-03T07:58:19;8.23;;;2.33;;
36855;SDS011;22788;51.434;6.786;2023-04-03T08:00:45;6.17;;;2.40;;
36855;SDS011;22788;51.434;6.786;2023-04-03T08:03:10;4.07;;;2.37;;
36855;SDS011;22788;51.434;6.786;2023-04-03T08:05:39;4.43;;;2.40;;
36855;SDS011;22788;51.434;6.786;2023-04-03T08:08:06;3.23;;;2.10;;
36855;SDS011;22788;51.434;6.786;2023-04-03T08:10:32;5.40;;;2.17;;
36855;SDS011;22788;51.434;6.786;2023-04-03T08:12:58;3.63;;;2.10;;
36855;SDS011;22788;51.434;6.786;2023-04-03T08:15:24;5.40;;;2.50;;
36855;SDS011;22788;51.434;6.786;2023-04-03T08:17:49;2.87;;;1.97;;
36855;SDS011;22788;51.434;6.786;2023-04-03T08:20:15;4.10;;;1.90;;
36855;SDS011;22788;51.434;6.786;2023-04-03T08:22:43;4.13;;;2.30;;
36855;SDS011;22788;51.434;6.786;2023-04-03T08:25:09;4.27;;;2.30;;
36855;SDS011;22788;51.434;6.786;2023-04-03T08:27:34;5.07;;;1.97;;
36855;SDS011;22788;51.434;6.786;2023-04-03T08:30:00;7.23;;;2.40;;
36855;SDS011;22788;51.434;6.786;2023-04-03T08:32:26;4.53;;;2.20;;
36855;SDS011;22788;51.434;6.786;2023-04-03T08:34:52;4.10;;;2.20;;
36855;SDS011;22788;51.434;6.786;2023-04-03T08:37:17;2.27;;;1.87;;
36855;SDS011;22788;51.434;6.786;2023-04-03T08:39:44;4.60;;;1.93;;
36855;SDS011;22788;51.434;6.786;2023-04-03T08:42:13;3.90;;;1.97;;
36855;SDS011;22788;51.434;6.786;2023-04-03T08:44:47;4.87;;;2.07;;
36855;SDS011;22788;51.434;6.786;2023-04-03T08:47:18;5.37;;;2.20;;
36855;SDS011;22788;51.434;6.786;2023-04-03T08:49:48;3.80;;;1.90;;
36855;SDS011;22788;51.434;6.786;2023-04-03T08:52:17;2.67;;;2.03;;
36855;SDS011;22788;51.434;6.786;2023-04-03T08:54:50;6.30;;;1.70;;
36855;SDS011;22788;51.434;6.786;2023-04-03T08:57:26;3.17;;;1.60;;
36855;SDS011;22788;51.434;6.786;2023-04-03T08:59:54;3.23;;;1.50;;
36855;SDS011;22788;51.434;6.786;2023-04-03T09:02:25;3.10;;;2.00;;
36855;SDS011;22788;51.434;6.786;2023-04-03T09:04:54;4.77;;;1.50;;
36855;SDS011;22788;51.434;6.786;2023-04-03T09:07:21;3.17;;;1.80;;
36855;SDS011;22788;51.434;6.786;2023-04-03T09:09:56;2.50;;;1.70;;
36855;SDS011;22788;51.434;6.786;2023-04-03T09:12:25;2.17;;;1.80;;
36855;SDS011;22788;51.434;6.786;2023-04-03T09:14:57;4.10;;;1.70;;
36855;SDS011;22788;51.434;6.786;2023-04-03T09:17:32;4.03;;;1.83;;
36855;SDS011;22788;51.434;6.786;2023-04-03T09:20:09;4.83;;;2.07;;
36855;SDS011;22788;51.434;6.786;2023-04-03T09:22:43;3.67;;;2.00;;
36855;SDS011;22788;51.434;6.786;2023-04-03T09:25:12;2.67;;;1.60;;
36855;SDS011;22788;51.434;6.786;2023-04-03T09:27:39;2.80;;;1.80;;
36855;SDS011;22788;51.434;6.786;2023-04-03T09:30:06;2.97;;;1.60;;
36855;SDS011;22788;51.434;6.786;2023-04-03T09:32:37;6.07;;;1.70;;
36855;SDS011;22788;51.434;6.786;2023-04-03T09:35:03;1.73;;;1.60;;
36855;SDS011;22788;51.434;6.786;2023-04-03T09:37:37;3.23;;;1.40;;
36855;SDS011;22788;51.434;6.786;2023-04-03T09:40:04;2.20;;;1.57;;
36855;SDS011;22788;51.434;6.786;2023-04-03T09:42:32;2.20;;;1.33;;
36855;SDS011;22788;51.434;6.786;2023-04-03T09:45:05;5.00;;;1.40;;
36855;SDS011;22788;51.434;6.786;2023-04-03T09:47:47;3.57;;;1.63;;
36855;SDS011;22788;51.434;6.786;2023-04-03T09:50:20;2.80;;;1.37;;
36855;SDS011;22788;51.434;6.786;2023-04-03T09:52:47;3.53;;;1.30;;
36855;SDS011;22788;51.434;6.786;2023-04-03T09:55:15;5.80;;;1.40;;
36855;SDS011;22788;51.434;6.786;2023-04-03T09:57:43;1.30;;;1.20;;
36855;SDS011;22788;51.434;6.786;2023-04-03T10:00:19;2.30;;;1.50;;
36855;SDS011;22788;51.434;6.786;2023-04-03T10:02:46;2.87;;;1.37;;
36855;SDS011;22788;51.434;6.786;2023-04-03T10:05:25;3.20;;;1.83;;
36855;SDS011;22788;51.434;6.786;2023-04-03T10:07:56;2.43;;;1.23;;
36855;SDS011;22788;51.434;6.786;2023-04-03T10:10:33;2.80;;;1.50;;
36855;SDS011;22788;51.434;6.786;2023-04-03T10:13:07;2.77;;;1.40;;
36855;SDS011;22788;51.434;6.786;2023-04-03T10:15:36;2.90;;;1.30;;
36855;SDS011;22788;51.434;6.786;2023-04-03T10:18:06;1.63;;;1.20;;
36855;SDS011;22788;51.434;6.786;2023-04-03T10:20:49;2.50;;;1.07;;
36855;SDS011;22788;51.434;6.786;2023-04-03T10:23:17;1.40;;;1.10;;
36855;SDS011;22788;51.434;6.786;2023-04-03T10:25:49;1.83;;;1.10;;
36855;SDS011;22788;51.434;6.786;2023-04-03T10:28:27;2.47;;;1.43;;
36855;SDS011;22788;51.434;6.786;2023-04-03T10:31:02;1.23;;;1.13;;
36855;SDS011;22788;51.434;6.786;2023-04-03T10:33:38;4.03;;;1.50;;
36855;SDS011;22788;51.434;6.786;2023-04-03T10:36:12;3.07;;;1.50;;
36855;SDS011;22788;51.434;6.786;2023-04-03T10:38:48;1.47;;;1.07;;
36855;SDS011;22788;51.434;6.786;2023-04-03T10:41:22;3.73;;;1.50;;
36855;SDS011;22788;51.434;6.786;2023-04-03T10:43:59;1.40;;;1.30;;
36855;SDS011;22788;51.434;6.786;2023-04-03T10:46:35;0.90;;;0.90;;
36855;SDS011;22788;51.434;6.786;2023-04-03T10:49:10;1.53;;;1.33;;
36855;SDS011;22788;51.434;6.786;2023-04-03T10:51:45;1.93;;;1.10;;
36855;SDS011;22788;51.434;6.786;2023-04-03T10:54:15;2.73;;;1.43;;
36855;SDS011;22788;51.434;6.786;2023-04-03T10:56:50;1.30;;;1.20;;
36855;SDS011;22788;51.434;6.786;2023-04-03T10:59:23;2.83;;;1.23;;
36855;SDS011;22788;51.434;6.786;2023-04-03T11:01:52;2.50;;;1.33;;
36855;SDS011;22788;51.434;6.786;2023-04-03T11:04:21;1.13;;;1.03;;
36855;SDS011;22788;51.434;6.786;2023-04-03T11:06:50;1.60;;;1.50;;
36855;SDS011;22788;51.434;6.786;2023-04-03T11:09:22;2.47;;;1.00;;
36855;SDS011;22788;51.434;6.786;2023-04-03T11:11:53;2.37;;;1.30;;
36855;SDS011;22788;51.434;6.786;2023-04-03T11:14:24;2.10;;;1.27;;
36855;SDS011;22788;51.434;6.786;2023-04-03T11:16:54;1.47;;;1.07;;
36855;SDS011;22788;51.434;6.786;2023-04-03T11:19:31;7.27;;;1.80;;
36855;SDS011;22788;51.434;6.786;2023-04-03T11:22:01;3.73;;;1.23;;
36855;SDS011;22788;51.434;6.786;2023-04-03T11:24:33;2.53;;;1.30;;
36855;SDS011;22788;51.434;6.786;2023-04-03T11:27:01;4.20;;;1.50;;
36855;SDS011;22788;51.434;6.786;2023-04-03T11:29:31;2.53;;;1.60;;
36855;SDS011;22788;51.434;6.786;2023-04-03T11:32:03;2.53;;;1.47;;
36855;SDS011;22788;51.434;6.786;2023-04-03T11:34:42;3.07;;;1.43;;
36855;SDS011;22788;51.434;6.786;2023-04-03T11:37:12;1.93;;;1.27;;
36855;SDS011;22788;51.434;6.786;2023-04-03T11:39:51;2.10;;;1.70;;
36855;SDS011;22788;51.434;6.786;2023-04-03T11:42:24;2.67;;;1.50;;
36855;SDS011;22788;51.434;6.786;2023-04-03T11:48:00;1.97;;;1.30;;
36855;SDS011;22788;51.434;6.786;2023-04-03T11:50:43;2.97;;;1.40;;
36855;SDS011;22788;51.434;6.786;2023-04-03T11:53:25;1.73;;;1.40;;
36855;SDS011;22788;51.434;6.786;2023-04-03T11:55:57;2.20;;;1.13;;
36855;SDS011;22788;51.434;6.786;2023-04-03T11:58:41;2.10;;;1.50;;
36855;SDS011;22788;51.434;6.786;2023-04-03T12:01:47;1.83;;;1.50;;
36855;SDS011;22788;51.434;6.786;2023-04-03T12:04:14;2.53;;;1.37;;
36855;SDS011;22788;51.434;6.786;2023-04-03T12:06:52;2.93;;;1.70;;
36855;SDS011;22788;51.434;6.786;2023-04-03T12:12:41;1.63;;;1.20;;
36855;SDS011;22788;51.434;6.786;2023-04-03T12:21:19;1.73;;;1.10;;
36855;SDS011;22788;51.434;6.786;2023-04-03T12:23:56;4.23;;;1.87;;
36855;SDS011;22788;51.434;6.786;2023-04-03T12:26:30;3.60;;;1.33;;
36855;SDS011;22788;51.434;6.786;2023-04-03T12:29:02;4.73;;;1.60;;
36855;SDS011;22788;51.434;6.786;2023-04-03T12:31:40;1.40;;;1.30;;
36855;SDS011;22788;51.434;6.786;2023-04-03T12:34:17;2.53;;;1.30;;
36855;SDS011;22788;51.434;6.786;2023-04-03T12:36:57;3.13;;;1.20;;
36855;SDS011;22788;51.434;6.786;2023-04-03T12:39:41;1.83;;;1.20;;
36855;SDS011;22788;51.434;6.786;2023-04-03T12:42:19;2.57;;;1.30;;
36855;SDS011;22788;51.434;6.786;2023-04-03T12:44:54;1.80;;;1.40;;
36855;SDS011;22788;51.434;6.786;2023-04-03T12:47:24;2.60;;;1.40;;
36855;SDS011;22788;51.434;6.786;2023-04-03T12:49:54;4.33;;;1.87;;
36855;SDS011;22788;51.434;6.786;2023-04-03T12:52:26;1.63;;;1.53;;
36855;SDS011;22788;51.434;6.786;2023-04-03T12:54:59;3.67;;;1.70;;
36855;SDS011;22788;51.434;6.786;2023-04-03T12:57:25;1.40;;;1.30;;
36855;SDS011;22788;51.434;6.786;2023-04-03T12:59:52;1.70;;;1.30;;
36855;SDS011;22788;51.434;6.786;2023-04-03T13:02:22;1.53;;;1.30;;
36855;SDS011;22788;51.434;6.786;2023-04-03T13:04:49;2.90;;;1.00;;
36855;SDS011;22788;51.434;6.786;2023-04-03T13:07:21;3.07;;;1.67;;
36855;SDS011;22788;51.434;6.786;2023-04-03T13:09:54;1.60;;;1.33;;
36855;SDS011;22788;51.434;6.786;2023-04-03T13:12:21;2.63;;;1.37;;
36855;SDS011;22788;51.434;6.786;2023-04-03T13:14:51;2.77;;;1.50;;
36855;SDS011;22788;51.434;6.786;2023-04-03T13:17:17;4.07;;;1.50;;
36855;SDS011;22788;51.434;6.786;2023-04-03T13:19:43;2.10;;;1.40;;
36855;SDS011;22788;51.434;6.786;2023-04-03T13:22:13;2.30;;;1.20;;
36855;SDS011;22788;51.434;6.786;2023-04-03T13:24:51;3.07;;;1.37;;
36855;SDS011;22788;51.434;6.786;2023-04-03T13:27:19;1.47;;;1.20;;
36855;SDS011;22788;51.434;6.786;2023-04-03T13:29:48;2.57;;;1.50;;
36855;SDS011;22788;51.434;6.786;2023-04-03T13:32:17;1.87;;;1.20;;
36855;SDS011;22788;51.434;6.786;2023-04-03T13:34:44;1.77;;;1.30;;
36855;SDS011;22788;51.434;6.786;2023-04-03T13:37:19;6.40;;;1.57;;
36855;SDS011;22788;51.434;6.786;2023-04-03T13:39:56;3.40;;;1.40;;
36855;SDS011;22788;51.434;6.786;2023-04-03T13:42:24;4.87;;;1.10;;
36855;SDS011;22788;51.434;6.786;2023-04-03T13:45:06;3.43;;;1.20;;
36855;SDS011;22788;51.434;6.786;2023-04-03T13:47:41;2.27;;;1.20;;
36855;SDS011;22788;51.434;6.786;2023-04-03T13:50:14;1.47;;;1.03;;
36855;SDS011;22788;51.434;6.786;2023-04-03T13:52:41;2.70;;;1.43;;
36855;SDS011;22788;51.434;6.786;2023-04-03T13:55:20;2.43;;;1.50;;
36855;SDS011;22788;51.434;6.786;2023-04-03T13:57:51;1.10;;;1.00;;
36855;SDS011;22788;51.434;6.786;2023-04-03T14:00:21;3.33;;;1.10;;
36855;SDS011;22788;51.434;6.786;2023-04-03T14:02:54;2.03;;;1.20;;
36855;SDS011;22788;51.434;6.786;2023-04-03T14:05:20;2.23;;;1.30;;
36855;SDS011;22788;51.434;6.786;2023-04-03T14:07:46;4.13;;;1.93;;
36855;SDS011;22788;51.434;6.786;2023-04-03T14:10:11;1.17;;;1.10;;
36855;SDS011;22788;51.434;6.786;2023-04-03T14:12:39;1.30;;;1.10;;
36855;SDS011;22788;51.434;6.786;2023-04-03T14:15:07;3.00;;;1.40;;
36855;SDS011;22788;51.434;6.786;2023-04-03T14:17:42;6.23;;;1.60;;
36855;SDS011;22788;51.434;6.786;2023-04-03T14:20:10;3.73;;;1.20;;
36855;SDS011;22788;51.434;6.786;2023-04-03T14:22:39;2.20;;;1.30;;
36855;SDS011;22788;51.434;6.786;2023-04-03T14:25:05;2.97;;;1.40;;
36855;SDS011;22788;51.434;6.786;2023-04-03T14:27:33;2.07;;;1.00;;
36855;SDS011;22788;51.434;6.786;2023-04-03T14:30:02;1.73;;;1.40;;
36855;SDS011;22788;51.434;6.786;2023-04-03T14:32:31;1.43;;;0.97;;
36855;SDS011;22788;51.434;6.786;2023-04-03T14:34:57;3.43;;;1.20;;
36855;SDS011;22788;51.434;6.786;2023-04-03T14:37:24;5.37;;;1.23;;
36855;SDS011;22788;51.434;6.786;2023-04-03T14:39:51;1.53;;;0.97;;
36855;SDS011;22788;51.434;6.786;2023-04-03T14:42:18;3.20;;;1.50;;
36855;SDS011;22788;51.434;6.786;2023-04-03T14:44:46;3.77;;;1.50;;
36855;SDS011;22788;51.434;6.786;2023-04-03T14:47:14;1.47;;;1.07;;
36855;SDS011;22788;51.434;6.786;2023-04-03T14:49:41;2.07;;;1.37;;
36855;SDS011;22788;51.434;6.786;2023-04-03T14:52:09;4.27;;;1.40;;
36855;SDS011;22788;51.434;6.786;2023-04-03T14:54:43;3.53;;;1.20;;
36855;SDS011;22788;51.434;6.786;2023-04-03T14:57:09;2.53;;;1.20;;
36855;SDS011;22788;51.434;6.786;2023-04-03T14:59:38;4.23;;;1.30;;
36855;SDS011;22788;51.434;6.786;2023-04-03T15:02:08;1.77;;;1.00;;
36855;SDS011;22788;51.434;6.786;2023-04-03T15:04:47;2.60;;;1.20;;
36855;SDS011;22788;51.434;6.786;2023-04-03T15:07:12;2.83;;;1.30;;
36855;SDS011;22788;51.434;6.786;2023-04-03T15:09:38;1.97;;;1.07;;